If you wish to contribute or participate in the discussions about articles you are invited to join SKYbrary as a registered user

 Actions

Teniente Amin Ayub Gonzalez Airport

From SKYbrary Wiki

SGEN
Airport
ICAO: SGEN – IATA: ENO
Summary
Name Teniente Amin Ayub Gonzalez Airport
Region South America and Caribbean
Territory Paraguay PY.gif
Location Encarnation, Itapua
Serving Encarnation
Elevation 199.034 m
653 ft199.034 m
Coordinates 27° 13' 38.34" S, 55° 50' 13.45" W
Runways
Designator Length Width Surface ROPS
5/23 1300 m4,265.092 ft
0 m0 ft
UNK /


METAR
Observation SGEN 131400Z 36010KT 9999 FEW033 36/17 Q1009
Station Encarnacion
Date/Time 13 October 2019 14:00:00
Wind direction 360°
Wind speed 10 kts
Lowest cloud amount few clouds
Temperature 36°C
Dew point 17°C
Humidity 32%
QNH 1009 hPa
Weather condition n/a

International airport serving Encarnation, capital of Itapua Department of Paraguay.

Climatology

Humid Subtropical climate (Köppen climate classification Cfa).

Maps

Terrain

Loading map...

Airport Layout

Loading map...


Accidents & Serious Incidents at or in vicinity of SGEN

None on SKYbrary